createdAt,value
2019-05-25T00:00:13.251Z,60.10
2019-05-25T00:02:42.674Z,60.49
2019-05-25T00:05:12.487Z,60.73
2019-05-25T00:07:41.829Z,61.22
2019-05-25T00:10:11.809Z,61.82
2019-05-25T00:12:41.141Z,62.04
2019-05-25T00:15:10.491Z,62.15
2019-05-25T00:17:39.820Z,62.37
2019-05-25T00:20:09.666Z,62.81
2019-05-25T00:22:38.983Z,63.02
2019-05-25T00:25:08.751Z,63.25
2019-05-25T00:27:38.095Z,63.62
2019-05-25T00:30:08.191Z,64.25
2019-05-25T00:32:37.802Z,64.54
2019-05-25T00:35:07.395Z,64.78
2019-05-25T00:37:36.897Z,64.70
2019-05-25T00:40:07.214Z,64.61
2019-05-25T00:42:36.558Z,64.61
2019-05-25T00:45:07.723Z,64.53
2019-05-25T00:47:37.294Z,64.44
2019-05-25T00:50:07.765Z,64.66
2019-05-25T00:52:37.096Z,65.15
2019-05-25T00:55:08.238Z,65.44
2019-05-25T00:57:37.527Z,65.68
2019-05-25T01:00:10.764Z,65.88
2019-05-25T01:02:41.239Z,66.03
2019-05-25T01:05:11.008Z,65.96
2019-05-25T01:07:40.597Z,65.81
2019-05-25T01:10:10.857Z,65.46
2019-05-25T01:12:40.178Z,65.27
2019-05-25T01:15:12.554Z,65.59
2019-05-25T01:17:41.877Z,65.68
2019-05-25T01:20:11.948Z,65.54
2019-05-25T01:22:41.285Z,65.60
2019-05-25T01:25:11.349Z,65.70
2019-05-25T01:27:40.683Z,66.07
2019-05-25T01:30:11.522Z,66.30
2019-05-25T01:32:40.859Z,66.51
2019-05-25T01:35:10.809Z,66.62
2019-05-25T01:37:40.192Z,66.79
2019-05-25T01:40:11.264Z,67.06
2019-05-25T01:42:40.599Z,67.18
2019-05-25T01:45:10.796Z,67.43
2019-05-25T01:47:40.134Z,67.73
2019-05-25T01:50:09.894Z,67.84
2019-05-25T01:52:39.228Z,67.98
2019-05-25T01:55:08.997Z,68.28
2019-05-25T01:57:38.341Z,68.36
2019-05-25T02:00:08.984Z,68.56
2019-05-25T02:02:38.321Z,68.80
2019-05-25T02:05:08.446Z,68.98
2019-05-25T02:07:37.785Z,69.28
2019-05-25T02:10:11.533Z,69.37
2019-05-25T02:12:40.939Z,69.66
2019-05-25T02:15:11.136Z,69.95
2019-05-25T02:17:41.453Z,70.11
2019-05-25T02:20:11.327Z,70.45
2019-05-25T02:22:40.667Z,70.75
2019-05-25T02:25:18.891Z,70.83
2019-05-25T02:27:41.780Z,70.97
2019-05-25T02:30:12.694Z,71.23
2019-05-25T02:32:42.010Z,71.44
2019-05-25T02:35:17.496Z,71.70
2019-05-25T02:37:47.213Z,71.83
2019-05-25T02:40:16.711Z,72.18
2019-05-25T02:42:46.060Z,72.24
2019-05-25T02:45:15.384Z,72.36
2019-05-25T02:47:44.728Z,72.65
2019-05-25T02:50:14.292Z,72.89
2019-05-25T02:52:43.624Z,72.97
2019-05-25T02:55:13.697Z,73.20
2019-05-25T02:57:43.029Z,73.51
2019-05-25T03:00:12.703Z,73.59
2019-05-25T03:02:42.071Z,73.61
2019-05-25T03:05:14.772Z,73.70
2019-05-25T03:07:45.715Z,73.88
2019-05-25T03:10:15.582Z,74.03
2019-05-25T03:12:44.994Z,74.11
2019-05-25T03:15:14.760Z,74.06
2019-05-25T03:17:44.089Z,74.13
2019-05-25T03:20:13.877Z,74.25
2019-05-25T03:22:43.210Z,74.32
2019-05-25T03:25:12.796Z,74.48
2019-05-25T03:27:42.130Z,74.58
2019-05-25T03:30:12.014Z,74.87
2019-05-25T03:32:41.336Z,74.96
2019-05-25T03:35:10.889Z,75.05
2019-05-25T03:37:40.193Z,75.28
2019-05-25T03:40:10.567Z,75.51
2019-05-25T03:42:39.902Z,75.59
2019-05-25T03:45:09.414Z,75.72
2019-05-25T03:47:38.748Z,75.98
2019-05-25T03:50:08.523Z,76.11
2019-05-25T03:52:37.859Z,76.22
2019-05-25T03:55:07.740Z,76.42
2019-05-25T03:57:37.085Z,76.51
2019-05-25T04:00:10.164Z,76.88
2019-05-25T04:02:39.539Z,76.95
2019-05-25T04:05:08.919Z,77.10
2019-05-25T04:07:38.517Z,77.44
2019-05-25T04:10:08.190Z,77.66
2019-05-25T04:12:37.846Z,77.90
2019-05-25T04:15:08.122Z,78.17
2019-05-25T04:17:37.456Z,78.12
2019-05-25T04:20:08.345Z,77.92
2019-05-25T04:22:38.012Z,77.73
2019-05-25T04:25:07.753Z,77.53
2019-05-25T04:27:37.091Z,77.39
2019-05-25T04:30:06.977Z,77.45
2019-05-25T04:32:36.479Z,77.52
2019-05-25T04:35:06.471Z,77.62
2019-05-25T04:37:35.797Z,77.84
2019-05-25T04:40:06.491Z,77.86
2019-05-25T04:42:35.836Z,77.76
2019-05-25T04:45:07.491Z,77.59
2019-05-25T04:47:36.835Z,77.62
2019-05-25T04:50:06.716Z,77.19
2019-05-25T04:52:36.225Z,76.71
2019-05-25T04:55:06.513Z,76.31
2019-05-25T04:57:35.862Z,76.02
2019-05-25T05:00:10.068Z,75.99
2019-05-25T05:02:39.388Z,75.96
2019-05-25T05:05:08.891Z,75.61
2019-05-25T05:07:38.236Z,75.30
2019-05-25T05:10:08.312Z,75.02
2019-05-25T05:12:37.666Z,74.83
2019-05-25T05:15:07.527Z,74.79
2019-05-25T05:17:36.870Z,74.54
2019-05-25T05:20:08.442Z,74.77
2019-05-25T05:22:37.791Z,74.45
2019-05-25T05:25:09.018Z,74.48
2019-05-25T05:27:39.188Z,74.29
2019-05-25T05:30:09.759Z,74.02
2019-05-25T05:32:39.335Z,73.71
2019-05-25T05:35:10.013Z,73.78
2019-05-25T05:37:41.782Z,73.45
2019-05-25T05:40:11.658Z,73.28
2019-05-25T05:42:43.203Z,72.91
2019-05-25T05:45:13.780Z,72.33
2019-05-25T05:47:46.794Z,72.17
2019-05-25T05:50:17.869Z,71.83
2019-05-25T05:52:50.990Z,71.76
2019-05-25T05:55:23.372Z,70.94
2019-05-25T05:57:52.709Z,70.42
2019-05-25T06:00:22.665Z,70.56
2019-05-25T06:02:51.979Z,69.75
2019-05-25T06:05:21.300Z,69.25
2019-05-25T06:07:50.631Z,68.52
2019-05-25T06:10:20.297Z,67.78
2019-05-25T06:12:49.802Z,67.31
2019-05-25T06:15:19.370Z,66.25
2019-05-25T06:17:48.701Z,65.68
2019-05-25T06:20:18.208Z,65.32
2019-05-25T06:22:47.543Z,65.57
2019-05-25T06:25:16.951Z,64.83
2019-05-25T06:27:46.594Z,64.81
2019-05-25T06:30:17.787Z,64.25
2019-05-25T06:32:47.121Z,63.67
2019-05-25T06:35:16.985Z,63.39
2019-05-25T06:37:46.389Z,63.50
2019-05-25T06:40:17.463Z,63.05
2019-05-25T06:42:47.112Z,62.60
2019-05-25T06:45:16.891Z,62.21
2019-05-25T06:47:46.245Z,61.36
2019-05-25T06:50:17.989Z,61.47
2019-05-25T06:52:47.338Z,61.57
2019-05-25T06:55:16.742Z,61.34
2019-05-25T06:57:46.070Z,60.75
2019-05-25T07:00:16.262Z,60.59
2019-05-25T07:02:45.586Z,60.53
2019-05-25T07:05:15.061Z,59.78
2019-05-25T07:07:44.392Z,60.16
2019-05-25T07:10:14.063Z,59.92
2019-05-25T07:12:43.387Z,59.68
2019-05-25T07:15:14.650Z,59.87
2019-05-25T07:17:44.212Z,59.22
2019-05-25T07:20:15.479Z,59.60
2019-05-25T07:22:44.804Z,59.55
2019-05-25T07:25:14.566Z,59.06
2019-05-25T07:27:58.126Z,59.10
2019-05-25T07:30:15.566Z,59.47
2019-05-25T07:32:45.057Z,59.65
2019-05-25T07:35:16.073Z,59.04
2019-05-25T07:37:45.668Z,58.60
2019-05-25T07:40:15.929Z,58.29
2019-05-25T07:42:45.626Z,58.49
2019-05-25T07:45:15.391Z,58.54
2019-05-25T07:47:45.032Z,58.50
2019-05-25T07:50:15.193Z,58.39
2019-05-25T07:52:44.516Z,58.43
2019-05-25T07:55:13.916Z,58.77
2019-05-25T07:57:43.481Z,59.02
2019-05-25T08:00:13.561Z,58.35
2019-05-25T08:02:42.954Z,58.11
2019-05-25T08:05:13.470Z,58.05
2019-05-25T08:07:42.815Z,56.77
2019-05-25T08:10:12.674Z,56.55
2019-05-25T08:12:42.070Z,56.46
2019-05-25T08:15:11.938Z,56.15
2019-05-25T08:17:41.268Z,55.79
2019-05-25T08:20:11.059Z,55.78
2019-05-25T08:22:40.380Z,55.85
2019-05-25T08:25:10.453Z,55.72
2019-05-25T08:27:39.796Z,55.93
2019-05-25T08:30:09.368Z,54.29
2019-05-25T08:32:38.694Z,53.94
2019-05-25T08:35:09.351Z,54.26
2019-05-25T08:37:38.848Z,53.66
2019-05-25T08:40:08.926Z,53.67
2019-05-25T08:42:38.257Z,53.51
2019-05-25T08:45:08.624Z,53.56
2019-05-25T08:47:38.128Z,53.54
2019-05-25T08:50:08.338Z,53.74
2019-05-25T08:52:38.458Z,53.08
2019-05-25T08:55:08.354Z,52.84
2019-05-25T08:57:37.691Z,52.37
2019-05-25T09:00:07.848Z,51.64
2019-05-25T09:02:37.186Z,52.40
2019-05-25T09:05:08.195Z,51.19
2019-05-25T09:07:37.524Z,51.55
2019-05-25T09:10:07.788Z,51.90
2019-05-25T09:12:37.448Z,51.81
2019-05-25T09:15:07.861Z,52.14
2019-05-25T09:17:37.353Z,51.60
2019-05-25T09:20:08.024Z,51.98
2019-05-25T09:22:37.345Z,51.08
2019-05-25T09:25:08.390Z,49.98
2019-05-25T09:27:38.085Z,50.04
2019-05-25T09:30:08.569Z,50.73
2019-05-25T09:32:38.171Z,50.77
2019-05-25T09:35:08.580Z,50.62
2019-05-25T09:37:37.901Z,50.72
2019-05-25T09:40:08.165Z,51.31
2019-05-25T09:42:37.774Z,50.55
2019-05-25T09:45:08.114Z,49.46
2019-05-25T09:47:37.813Z,48.57
2019-05-25T09:50:07.468Z,48.74
2019-05-25T09:52:36.798Z,48.90
2019-05-25T09:55:08.782Z,48.83
2019-05-25T09:57:41.411Z,48.81
2019-05-25T10:00:13.234Z,49.37
2019-05-25T10:02:43.499Z,49.40
2019-05-25T10:05:14.279Z,46.99
2019-05-25T10:07:43.626Z,46.92
2019-05-25T10:10:13.394Z,46.76
2019-05-25T10:12:42.722Z,46.10
2019-05-25T10:15:12.420Z,45.84
2019-05-25T10:17:41.783Z,46.12
2019-05-25T10:20:11.885Z,45.56
2019-05-25T10:22:41.223Z,44.61
2019-05-25T10:25:12.288Z,45.70
2019-05-25T10:27:41.620Z,44.55
2019-05-25T10:30:11.328Z,44.74
2019-05-25T10:32:41.022Z,45.10
2019-05-25T10:35:10.662Z,45.47
2019-05-25T10:37:39.987Z,45.85
2019-05-25T10:40:09.655Z,45.15
2019-05-25T10:42:38.988Z,44.60
2019-05-25T10:45:09.447Z,45.42
2019-05-25T10:47:39.057Z,45.95
2019-05-25T10:50:10.345Z,44.91
2019-05-25T10:52:39.711Z,44.61
2019-05-25T10:55:10.080Z,44.80
2019-05-25T10:57:39.456Z,44.50
2019-05-25T11:00:10.821Z,44.63
2019-05-25T11:02:40.176Z,43.04
2019-05-25T11:05:10.651Z,43.54
2019-05-25T11:07:40.014Z,43.73
2019-05-25T11:10:09.967Z,44.85
2019-05-25T11:12:39.651Z,44.92
2019-05-25T11:15:09.523Z,45.58
2019-05-25T11:17:38.860Z,45.40
2019-05-25T11:20:09.318Z,44.87
2019-05-25T11:22:38.828Z,43.08
2019-05-25T11:25:10.430Z,41.37
2019-05-25T11:27:39.929Z,39.53
2019-05-25T11:30:10.474Z,38.67
2019-05-25T11:32:39.897Z,37.85
2019-05-25T11:35:09.530Z,37.85
2019-05-25T11:37:38.862Z,36.60
2019-05-25T11:40:09.139Z,36.55
2019-05-25T11:42:38.463Z,36.45
2019-05-25T11:45:08.834Z,34.23
2019-05-25T11:47:38.413Z,31.93
2019-05-25T11:50:10.233Z,30.69
2019-05-25T11:52:39.600Z,30.32
2019-05-25T11:55:09.879Z,29.18
2019-05-25T11:57:39.206Z,28.97
2019-05-25T12:00:23.716Z,29.53
2019-05-25T12:02:41.065Z,28.54
2019-05-25T12:05:11.975Z,28.81
2019-05-25T12:07:44.517Z,28.17
2019-05-25T12:10:14.165Z,28.58
2019-05-25T12:12:43.500Z,28.92
2019-05-25T12:15:14.275Z,28.58
2019-05-25T12:17:43.606Z,27.11
2019-05-25T12:20:13.687Z,26.35
2019-05-25T12:22:43.023Z,27.24
2019-05-25T12:25:13.006Z,27.15
2019-05-25T12:27:42.337Z,26.69
2019-05-25T12:30:12.313Z,26.01
2019-05-25T12:32:41.644Z,26.79
2019-05-25T12:35:11.312Z,26.54
2019-05-25T12:37:40.627Z,27.24
2019-05-25T12:40:10.607Z,26.97
2019-05-25T12:42:40.199Z,27.19
2019-05-25T12:45:09.868Z,26.36
2019-05-25T12:47:39.514Z,27.32
2019-05-25T12:50:09.188Z,25.81
2019-05-25T12:52:38.756Z,24.66
2019-05-25T12:55:08.549Z,23.37
2019-05-25T12:57:37.872Z,23.37
2019-05-25T13:00:15.541Z,24.31
2019-05-25T13:02:39.318Z,23.11
2019-05-25T13:05:09.117Z,21.89
2019-05-25T13:07:38.439Z,22.15
2019-05-25T13:10:08.309Z,22.16
2019-05-25T13:12:37.640Z,22.31
2019-05-25T13:15:07.498Z,22.23
2019-05-25T13:17:37.084Z,22.31
2019-05-25T13:20:06.860Z,22.95
2019-05-25T13:22:36.184Z,22.58
2019-05-25T13:25:10.235Z,22.13
2019-05-25T13:27:39.530Z,22.52
2019-05-25T13:30:09.501Z,22.78
2019-05-25T13:32:38.828Z,22.79
2019-05-25T13:35:08.636Z,23.59
2019-05-25T13:37:37.924Z,22.79
2019-05-25T13:40:09.361Z,22.48
2019-05-25T13:42:38.759Z,22.33
2019-05-25T13:45:09.219Z,22.39
2019-05-25T13:47:38.548Z,22.32
2019-05-25T13:50:09.120Z,22.65
2019-05-25T13:52:38.440Z,22.83
2019-05-25T13:55:08.883Z,23.45
2019-05-25T13:57:38.473Z,23.62
2019-05-25T14:00:08.683Z,23.81
2019-05-25T14:02:38.095Z,24.15
2019-05-25T14:05:08.954Z,23.93
2019-05-25T14:07:39.409Z,27.23
2019-05-25T14:10:09.647Z,25.99
2019-05-25T14:12:38.965Z,26.12
2019-05-25T14:15:09.269Z,26.12
2019-05-25T14:17:39.042Z,28.89
2019-05-25T14:20:09.410Z,28.89
2019-05-25T14:22:38.738Z,27.13
2019-05-25T14:25:09.946Z,26.95
2019-05-25T14:27:39.296Z,27.48
2019-05-25T14:30:09.569Z,27.55
2019-05-25T14:32:38.967Z,28.37
2019-05-25T14:35:08.759Z,28.77
2019-05-25T14:37:38.159Z,30.89
2019-05-25T14:40:11.411Z,30.82
2019-05-25T14:42:40.112Z,32.40
2019-05-25T14:45:10.468Z,31.58
2019-05-25T14:47:39.802Z,30.51
2019-05-25T14:50:09.962Z,29.43
2019-05-25T14:52:42.871Z,29.83
2019-05-25T14:55:10.978Z,29.21
2019-05-25T14:57:40.318Z,28.53
2019-05-25T15:00:11.852Z,27.74
2019-05-25T15:02:41.520Z,26.94
2019-05-25T15:05:11.181Z,26.31
2019-05-25T15:07:40.517Z,26.16
2019-05-25T15:10:10.382Z,25.92
2019-05-25T15:12:39.717Z,26.09
2019-05-25T15:15:10.283Z,26.56
2019-05-25T15:17:42.724Z,27.45
2019-05-25T15:20:11.457Z,27.03
2019-05-25T15:22:40.977Z,26.84
2019-05-25T15:25:10.862Z,26.88
2019-05-25T15:27:40.198Z,27.48
2019-05-25T15:30:09.761Z,27.88
2019-05-25T15:32:39.105Z,27.79
2019-05-25T15:35:08.554Z,27.98
2019-05-25T15:37:37.883Z,28.43
2019-05-25T15:40:11.239Z,27.66
2019-05-25T15:42:40.637Z,28.24
2019-05-25T15:45:10.407Z,28.81
2019-05-25T15:47:39.801Z,29.20
2019-05-25T15:50:11.333Z,29.64
2019-05-25T15:52:41.631Z,30.26
2019-05-25T15:55:11.136Z,30.85
2019-05-25T15:57:40.526Z,29.94
2019-05-25T16:00:11.396Z,29.90
2019-05-25T16:02:40.857Z,30.01
2019-05-25T16:05:10.629Z,30.06
2019-05-25T16:07:43.431Z,30.93
2019-05-25T16:10:13.106Z,31.25
2019-05-25T16:12:42.435Z,32.48
2019-05-25T16:15:11.823Z,33.88
2019-05-25T16:17:42.220Z,34.76
2019-05-25T16:20:11.629Z,35.66
2019-05-25T16:22:41.007Z,35.50
2019-05-25T16:25:10.407Z,34.63
2019-05-25T16:27:41.164Z,34.34
2019-05-25T16:30:10.932Z,34.06
2019-05-25T16:33:10.160Z,33.61
2019-05-25T16:35:11.506Z,35.64
2019-05-25T16:37:41.107Z,36.40
2019-05-25T16:40:10.876Z,35.02
2019-05-25T16:42:40.211Z,37.58
2019-05-25T16:45:10.275Z,36.78
2019-05-25T16:47:39.605Z,37.93
2019-05-25T16:50:14.548Z,37.21
2019-05-25T16:52:41.771Z,38.94
2019-05-25T16:55:11.515Z,38.09
2019-05-25T16:57:41.066Z,36.55
2019-05-25T17:00:10.836Z,36.87
2019-05-25T17:02:40.170Z,38.58
2019-05-25T17:05:09.902Z,36.30
2019-05-25T17:07:39.468Z,36.41
2019-05-25T17:10:08.971Z,36.12
2019-05-25T17:12:38.296Z,36.75
2019-05-25T17:15:07.907Z,36.99
2019-05-25T17:17:37.467Z,37.38
2019-05-25T17:20:07.355Z,37.00
2019-05-25T17:22:36.713Z,36.93
2019-05-25T17:25:07.759Z,37.55
2019-05-25T17:27:37.092Z,37.72
2019-05-25T17:30:07.980Z,38.19
2019-05-25T17:32:37.308Z,37.23
2019-05-25T17:35:06.975Z,36.32
2019-05-25T17:37:36.391Z,36.86
2019-05-25T17:40:07.627Z,37.62
2019-05-25T17:42:37.201Z,37.31
2019-05-25T17:45:06.996Z,37.76
2019-05-25T17:47:36.294Z,37.78
2019-05-25T17:50:06.861Z,37.94
2019-05-25T17:52:36.265Z,38.49
2019-05-25T17:55:07.350Z,38.77
2019-05-25T17:57:37.037Z,38.36
2019-05-25T18:00:09.386Z,38.95
2019-05-25T18:02:38.710Z,39.17
2019-05-25T18:05:08.585Z,39.15
2019-05-25T18:07:38.162Z,39.34
2019-05-25T18:10:08.230Z,39.47
2019-05-25T18:12:37.632Z,39.55
2019-05-25T18:15:09.348Z,39.29
2019-05-25T18:17:38.692Z,39.50
2019-05-25T18:20:10.427Z,40.16
2019-05-25T18:22:39.817Z,40.67
2019-05-25T18:25:09.279Z,41.12
2019-05-25T18:27:39.580Z,41.86
2019-05-25T18:30:11.776Z,42.30
2019-05-25T18:32:41.116Z,42.85
2019-05-25T18:35:10.504Z,43.23
2019-05-25T18:37:39.878Z,43.74
2019-05-25T18:40:10.738Z,44.75
2019-05-25T18:42:40.067Z,43.58
2019-05-25T18:45:10.534Z,44.93
2019-05-25T18:47:39.940Z,43.80
2019-05-25T18:50:10.707Z,44.48
2019-05-25T18:52:40.036Z,44.69
2019-05-25T18:55:10.016Z,42.92
2019-05-25T18:57:39.346Z,42.36
2019-05-25T19:00:09.499Z,42.44
2019-05-25T19:02:39.202Z,42.62
2019-05-25T19:05:09.053Z,42.85
2019-05-25T19:07:38.494Z,43.22
2019-05-25T19:10:10.266Z,43.63
2019-05-25T19:12:39.616Z,44.01
2019-05-25T19:15:09.863Z,44.25
2019-05-25T19:17:40.368Z,44.27
2019-05-25T19:20:10.094Z,44.54
2019-05-25T19:22:39.725Z,44.84
2019-05-25T19:25:09.399Z,45.20
2019-05-25T19:27:39.931Z,45.58
2019-05-25T19:30:11.080Z,46.64
2019-05-25T19:32:40.498Z,47.32
2019-05-25T19:35:10.681Z,47.50
2019-05-25T19:37:42.471Z,48.17
2019-05-25T19:40:11.456Z,49.59
2019-05-25T19:42:41.196Z,50.46
2019-05-25T19:45:11.084Z,51.03
2019-05-25T19:47:40.414Z,50.55
2019-05-25T19:50:10.082Z,50.63
2019-05-25T19:52:39.649Z,49.32
2019-05-25T19:55:09.245Z,49.57
2019-05-25T19:57:38.576Z,50.96
2019-05-25T20:00:08.641Z,52.00
2019-05-25T20:02:38.063Z,51.31
2019-05-25T20:05:16.563Z,52.53
2019-05-25T20:07:39.260Z,52.67
2019-05-25T20:10:09.352Z,53.73
2019-05-25T20:12:38.698Z,54.89
2019-05-25T20:15:10.065Z,53.89
2019-05-25T20:17:39.467Z,53.76
2019-05-25T20:20:10.139Z,54.14
2019-05-25T20:22:39.474Z,54.94
2019-05-25T20:25:10.382Z,54.73
2019-05-25T20:27:39.710Z,53.64
2019-05-25T20:30:09.286Z,53.61
2019-05-25T20:32:38.601Z,54.31
2019-05-25T20:35:08.905Z,54.85
2019-05-25T20:37:38.229Z,54.63
2019-05-25T20:40:08.224Z,55.94
2019-05-25T20:42:38.581Z,54.67
2019-05-25T20:45:09.353Z,55.75
2019-05-25T20:47:38.915Z,56.33
2019-05-25T20:50:08.791Z,55.11
2019-05-25T20:52:38.118Z,55.74
2019-05-25T20:55:07.916Z,56.35
2019-05-25T20:57:37.248Z,56.35
2019-05-25T21:00:07.193Z,55.21
2019-05-25T21:02:37.032Z,55.66
2019-05-25T21:05:07.110Z,56.55
2019-05-25T21:07:36.685Z,56.65
2019-05-25T21:10:07.656Z,56.59
2019-05-25T21:12:36.983Z,57.32
2019-05-25T21:15:08.662Z,57.26
2019-05-25T21:17:38.116Z,57.24
2019-05-25T21:20:08.629Z,57.52
2019-05-25T21:22:39.491Z,58.30
2019-05-25T21:25:09.344Z,58.34
2019-05-25T21:27:38.667Z,58.29
2019-05-25T21:30:09.325Z,58.64
2019-05-25T21:32:38.647Z,59.03
2019-05-25T21:35:09.334Z,59.28
2019-05-25T21:37:38.906Z,59.42
2019-05-25T21:40:09.562Z,59.67
2019-05-25T21:42:38.887Z,60.37
2019-05-25T21:45:09.627Z,60.83
2019-05-25T21:47:38.956Z,61.10
2019-05-25T21:50:09.425Z,61.41
2019-05-25T21:52:38.764Z,61.86
2019-05-25T21:55:08.739Z,62.15
2019-05-25T21:57:38.072Z,62.50
2019-05-25T22:00:10.894Z,63.02
2019-05-25T22:02:40.558Z,63.42
2019-05-25T22:05:10.531Z,63.66
2019-05-25T22:07:40.314Z,64.21
2019-05-25T22:10:10.791Z,64.43
2019-05-25T22:12:40.714Z,64.25
2019-05-25T22:15:12.016Z,64.57
2019-05-25T22:17:41.336Z,64.77
2019-05-25T22:20:12.311Z,65.11
2019-05-25T22:22:41.655Z,65.49
2019-05-25T22:25:11.287Z,65.50
2019-05-25T22:27:40.618Z,65.63
2019-05-25T22:30:10.371Z,65.94
2019-05-25T22:32:39.719Z,66.13
2019-05-25T22:35:09.266Z,66.46
2019-05-25T22:37:38.651Z,66.85
2019-05-25T22:40:09.110Z,67.24
2019-05-25T22:42:38.724Z,67.01
2019-05-25T22:45:08.701Z,67.36
2019-05-25T22:47:38.035Z,66.85
2019-05-25T22:50:07.804Z,66.97
2019-05-25T22:52:37.248Z,67.47
2019-05-25T22:55:07.717Z,67.59
2019-05-25T22:57:37.055Z,67.21
2019-05-25T23:00:08.428Z,67.30
2019-05-25T23:02:37.799Z,67.35
2019-05-25T23:05:07.659Z,67.10
2019-05-25T23:07:36.974Z,67.65
2019-05-25T23:10:08.586Z,67.77
2019-05-25T23:12:38.320Z,68.16
2019-05-25T23:15:08.715Z,68.20
2019-05-25T23:17:38.231Z,68.54
2019-05-25T23:20:08.602Z,67.86
2019-05-25T23:22:37.937Z,67.90
2019-05-25T23:25:09.478Z,67.57
2019-05-25T23:27:38.820Z,67.27
2019-05-25T23:30:08.688Z,67.28
2019-05-25T23:32:38.061Z,67.21
2019-05-25T23:35:08.530Z,67.64
2019-05-25T23:37:37.867Z,67.70
2019-05-25T23:40:07.825Z,67.54
2019-05-25T23:42:37.163Z,67.34
2019-05-25T23:45:09.684Z,67.62
2019-05-25T23:47:39.090Z,67.75
2019-05-25T23:50:08.753Z,67.77
2019-05-25T23:52:38.082Z,67.99
2019-05-25T23:55:08.180Z,68.39
2019-05-25T23:57:37.526Z,68.61
